Funchalense 5 — CSKN — position and weather

sailwx.info

Track history (hours):
 
Tides and Currents Weather Stations Pressure Air Temp Water Temp Dewpoint Dewpoint Depression Visibility Wind Speed Wind Dir Waves Ship Positions

Funchalense 5

Last reported at 2014-Jul-27 09:10 UTC. Time now 2014-Jul-29 16:48 UTC.
Position N 36°30' W 012°09'.

Length 131 m; draft 7.5 m.

Type: Ship. MMSI: 255804250.

Date/timePositionNaut miles runAvg speedWind from/ knotsBaromVisibWave heightAir tempDewpointWater temp
2014-Jul-27 09:10N 36°30' W 012°09'1116.6
2014-Jul-27 08:29N 36°38' W 011°60'4615.6
2014-Jul-27 05:30N 37°11' W 011°18'1515.3
2014-Jul-27 04:33N 37°21' W 011°05'1514.9
2014-Jul-27 03:32N 37°31' W 010°51'1515.0
2014-Jul-27 02:34N 37°41' W 010°38'6115.2
2014-Jul-26 22:33N 38°23' W 009°41'1515.4
2014-Jul-26 21:32N 38°34' W 009°27'1515.4
2014-Jul-26 20:34N 38°41' W 009°10'4 3.8
2014-Jul-26 19:31N 38°44' W 009°06'0 0.0
2014-Jul-26 18:31N 38°44' W 009°06'0 0.1
2014-Jul-26 17:30N 38°44' W 009°06'0 0.0
2014-Jul-26 16:33N 38°44' W 009°06'0 0.0
2014-Jul-26 15:33N 38°44' W 009°06'0 0.0
2014-Jul-26 14:32N 38°44' W 009°06'0 0.0
2014-Jul-26 13:32N 38°44' W 009°06'0 0.0
2014-Jul-26 12:31N 38°44' W 009°06'0 0.0
2014-Jul-26 11:28N 38°44' W 009°06'0 0.0
2014-Jul-26 10:33N 38°44' W 009°06'0 0.0
2014-Jul-26 09:33N 38°44' W 009°06'0 0.0
2014-Jul-26 08:33N 38°44' W 009°06'0 0.0
2014-Jul-26 07:32N 38°44' W 009°06'3 3.0
2014-Jul-26 06:33N 38°42' W 009°09'1513.8
2014-Jul-26 05:27N 38°37' W 009°28'71 1.6
2014-Jul-24 09:17N 39°48' W 009°28'2714.4
2014-Jul-24 07:25N 39°31' W 009°55'1815.9
2014-Jul-24 06:16N 39°19' W 010°13'  
2014-Jul-19 22:10N 38°33' W 009°27'915.3
2014-Jul-19 21:34N 38°40' W 009°19'1010.1
2014-Jul-19 20:31N 38°44' W 009°06'0 0.0
2014-Jul-19 19:31N 38°44' W 009°06'0 0.0
2014-Jul-19 18:33N 38°44' W 009°06'0 0.1
2014-Jul-19 17:33N 38°44' W 009°06'0 0.0
2014-Jul-19 16:34N 38°44' W 009°06'0 0.0
2014-Jul-19 15:34N 38°44' W 009°06'0 0.0
2014-Jul-19 14:34N 38°44' W 009°06'0 0.0
2014-Jul-19 13:33N 38°44' W 009°06'0 0.0
2014-Jul-19 12:34N 38°44' W 009°06'0 0.0
2014-Jul-19 11:34N 38°44' W 009°06'0 0.0
2014-Jul-19 10:34N 38°44' W 009°06'0 0.0
2014-Jul-19 09:34N 38°44' W 009°06'0 0.0
2014-Jul-19 08:34N 38°44' W 009°06'0 0.1
2014-Jul-19 07:34N 38°44' W 009°06'  
Track history (hours):
 
Tides and Currents Weather Stations Pressure Air Temp Water Temp Dewpoint Dewpoint Depression Visibility Wind Speed Wind Dir Waves Ship Positions

Funchalense 5

Last reported at 2014-Jul-27 09:10 UTC. Time now 2014-Jul-29 16:48 UTC.
Position N 36°30' W 012°09'.

Length 131 m; draft 7.5 m.

Type: Ship. MMSI: 255804250.

Date/timePositionNaut miles runAvg speedWind from/ knotsBaromVisibWave heightAir tempDewpointWater temp
2014-Jul-27 09:10N 36°30' W 012°09'1116.6
2014-Jul-27 08:29N 36°38' W 011°60'4615.6
2014-Jul-27 05:30N 37°11' W 011°18'1515.3
2014-Jul-27 04:33N 37°21' W 011°05'1514.9
2014-Jul-27 03:32N 37°31' W 010°51'1515.0
2014-Jul-27 02:34N 37°41' W 010°38'6115.2
2014-Jul-26 22:33N 38°23' W 009°41'1515.4
2014-Jul-26 21:32N 38°34' W 009°27'1515.4
2014-Jul-26 20:34N 38°41' W 009°10'4 3.8
2014-Jul-26 19:31N 38°44' W 009°06'0 0.0
2014-Jul-26 18:31N 38°44' W 009°06'0 0.1
2014-Jul-26 17:30N 38°44' W 009°06'0 0.0
2014-Jul-26 16:33N 38°44' W 009°06'0 0.0
2014-Jul-26 15:33N 38°44' W 009°06'0 0.0
2014-Jul-26 14:32N 38°44' W 009°06'0 0.0
2014-Jul-26 13:32N 38°44' W 009°06'0 0.0
2014-Jul-26 12:31N 38°44' W 009°06'0 0.0
2014-Jul-26 11:28N 38°44' W 009°06'0 0.0
2014-Jul-26 10:33N 38°44' W 009°06'0 0.0
2014-Jul-26 09:33N 38°44' W 009°06'0 0.0
2014-Jul-26 08:33N 38°44' W 009°06'0 0.0
2014-Jul-26 07:32N 38°44' W 009°06'3 3.0
2014-Jul-26 06:33N 38°42' W 009°09'1513.8
2014-Jul-26 05:27N 38°37' W 009°28'71 1.6
2014-Jul-24 09:17N 39°48' W 009°28'2714.4
2014-Jul-24 07:25N 39°31' W 009°55'1815.9
2014-Jul-24 06:16N 39°19' W 010°13'  
2014-Jul-19 22:10N 38°33' W 009°27'915.3
2014-Jul-19 21:34N 38°40' W 009°19'1010.1
2014-Jul-19 20:31N 38°44' W 009°06'0 0.0
2014-Jul-19 19:31N 38°44' W 009°06'0 0.0
2014-Jul-19 18:33N 38°44' W 009°06'0 0.1
2014-Jul-19 17:33N 38°44' W 009°06'0 0.0
2014-Jul-19 16:34N 38°44' W 009°06'0 0.0
2014-Jul-19 15:34N 38°44' W 009°06'0 0.0
2014-Jul-19 14:34N 38°44' W 009°06'0 0.0
2014-Jul-19 13:33N 38°44' W 009°06'0 0.0
2014-Jul-19 12:34N 38°44' W 009°06'0 0.0
2014-Jul-19 11:34N 38°44' W 009°06'0 0.0
2014-Jul-19 10:34N 38°44' W 009°06'0 0.0
2014-Jul-19 09:34N 38°44' W 009°06'0 0.0
2014-Jul-19 08:34N 38°44' W 009°06'0 0.1
2014-Jul-19 07:34N 38°44' W 009°06'  

Dump ship's entire track history